Artesia, New Mexico
Current Conditions -  °F | °C
As of 1:51 PM on Tuesday 21 Oct 2014 (Local Time) from KROW Reporting Station
Overcast Overcast  
Wind Chill: 66°   Ceiling: 2100
Heat Index: 66°   Visibility: 10mi
Dew Point: 58°   Wind: 6mph
Humidity: 75%   Direction: 240°WSW
Pressure: 30.07"   Gusts: NA
Location:  32.84°N, 104.39°W
Report Text: KROW 211951Z 24005KT 10SM SCT015 BKN021 OVC110 19/14 A3007 RMK AO2 RAB1854E05 SLP137 P0000 T01890144
Loading
Personal Weather Stations






























Interactive Weather Map
Tropical Storm Tracking
New forecast layout! Learn more

10-Day Weather Forecast

Advertisements
Track Severe Weather on mobile